AFR11AM LFPG-EPWA
Flight info
| Callsign | AFR11AM |
|---|---|
| Flight time | 2h 1m |
| Altitude | 37000 |
| Route | RANUX DCT VALEK DCT LIPNI DCT LIMGO DCT MASEK DCT ROBEL DCT POZUM DCT OLUMA DCT OBOKU DCT DOSIX DCT BIMPA |
| Aircraft | A319/M-SDE3FGHIRWY/LB1 |
Departure
| Time | 2026-05-03 21:09 |
|---|---|
| Airport | Charles de Gaulle International Airport (LFPG) |
Arrival
| Time | 2026-05-03 23:11 |
|---|---|
| Airport | Warsaw Chopin Airport (EPWA) |
| Time | Latitude | Longitude | Altitude | Speed | Heading |
|---|---|---|---|---|---|
| 2026-05-03 20:17 | 49.01677 | 2.54400 | 360 ft | 0 kts | 248° |
| 2026-05-03 20:54 | 49.01679 | 2.54407 | 360 ft | 2 kts | 248° |
| 2026-05-03 20:54 | 49.01692 | 2.54458 | 360 ft | 3 kts | 248° |
| 2026-05-03 20:54 | 49.01700 | 2.54487 | 360 ft | 3 kts | 248° |
| 2026-05-03 20:55 | 49.01708 | 2.54516 | 360 ft | 3 kts | 248° |
| 2026-05-03 20:55 | 49.01716 | 2.54545 | 360 ft | 3 kts | 248° |
| 2026-05-03 20:55 | 49.01717 | 2.54552 | 360 ft | 0 kts | 248° |
| 2026-05-03 20:59 | 49.01717 | 2.54551 | 360 ft | 0 kts | 248° |
| 2026-05-03 21:00 | 49.01730 | 2.54514 | 360 ft | 5 kts | 306° |
| 2026-05-03 21:00 | 49.01750 | 2.54471 | 360 ft | 6 kts | 302° |
| 2026-05-03 21:01 | 49.01771 | 2.54408 | 360 ft | 8 kts | 295° |
| 2026-05-03 21:01 | 49.01801 | 2.54343 | 360 ft | 7 kts | 329° |
| 2026-05-03 21:01 | 49.01822 | 2.54397 | 360 ft | 9 kts | 86° |
| 2026-05-03 21:01 | 49.01825 | 2.54495 | 360 ft | 10 kts | 85° |
| 2026-05-03 21:02 | 49.01831 | 2.54605 | 360 ft | 11 kts | 86° |
| 2026-05-03 21:02 | 49.01838 | 2.54727 | 360 ft | 11 kts | 84° |
| 2026-05-03 21:02 | 49.01845 | 2.54844 | 360 ft | 11 kts | 85° |
| 2026-05-03 21:02 | 49.01851 | 2.54965 | 360 ft | 12 kts | 83° |
| 2026-05-03 21:03 | 49.01858 | 2.55086 | 360 ft | 12 kts | 85° |
| 2026-05-03 21:03 | 49.01865 | 2.55223 | 360 ft | 14 kts | 85° |
| 2026-05-03 21:03 | 49.01873 | 2.55376 | 360 ft | 15 kts | 85° |
| 2026-05-03 21:03 | 49.01882 | 2.55533 | 360 ft | 15 kts | 85° |
| 2026-05-03 21:04 | 49.01890 | 2.55680 | 360 ft | 11 kts | 85° |
| 2026-05-03 21:04 | 49.01897 | 2.55801 | 360 ft | 12 kts | 85° |
| 2026-05-03 21:04 | 49.01922 | 2.55886 | 360 ft | 9 kts | 7° |
| 2026-05-03 21:04 | 49.01994 | 2.55880 | 360 ft | 10 kts | 357° |
| 2026-05-03 21:05 | 49.02059 | 2.55876 | 360 ft | 7 kts | 6° |
| 2026-05-03 21:05 | 49.02081 | 2.55948 | 360 ft | 7 kts | 88° |
| 2026-05-03 21:05 | 49.02113 | 2.55998 | 360 ft | 8 kts | 356° |
| 2026-05-03 21:05 | 49.02174 | 2.55992 | 360 ft | 10 kts | 357° |
| 2026-05-03 21:06 | 49.02219 | 2.55988 | 360 ft | 0 kts | 356° |
| 2026-05-03 21:07 | 49.02224 | 2.55988 | 360 ft | 2 kts | 356° |
| 2026-05-03 21:07 | 49.02242 | 2.55986 | 360 ft | 3 kts | 356° |
| 2026-05-03 21:08 | 49.02270 | 2.55983 | 360 ft | 4 kts | 356° |
| 2026-05-03 21:08 | 49.02302 | 2.55973 | 360 ft | 5 kts | 308° |
| 2026-05-03 21:08 | 49.02305 | 2.55924 | 360 ft | 5 kts | 265° |
| 2026-05-03 21:08 | 49.02297 | 2.55779 | 360 ft | 34 kts | 265° |
| 2026-05-03 21:09 | 49.02255 | 2.54996 | 360 ft | 114 kts | 265° |
| 2026-05-03 21:09 | 49.02172 | 2.53466 | 538 ft | 166 kts | 265° |
| 2026-05-03 21:09 | 49.02104 | 2.51669 | 1419 ft | 170 kts | 267° |
| 2026-05-03 21:09 | 49.02041 | 2.49845 | 2396 ft | 172 kts | 266° |
| 2026-05-03 21:10 | 49.01961 | 2.48029 | 3142 ft | 178 kts | 266° |
| 2026-05-03 21:10 | 49.01880 | 2.46065 | 3627 ft | 198 kts | 266° |
| 2026-05-03 21:10 | 49.01813 | 2.43803 | 3900 ft | 229 kts | 274° |
| 2026-05-03 21:10 | 49.02376 | 2.41459 | 4355 ft | 248 kts | 307° |
| 2026-05-03 21:11 | 49.03710 | 2.39717 | 5073 ft | 258 kts | 326° |
| 2026-05-03 21:11 | 49.05237 | 2.38208 | 5914 ft | 265 kts | 327° |
| 2026-05-03 21:11 | 49.06809 | 2.36694 | 6830 ft | 270 kts | 328° |
| 2026-05-03 21:11 | 49.08419 | 2.35155 | 7764 ft | 275 kts | 328° |
| 2026-05-03 21:12 | 49.10113 | 2.33768 | 8652 ft | 279 kts | 341° |
| 2026-05-03 21:12 | 49.12044 | 2.33449 | 9502 ft | 283 kts | 9° |
| 2026-05-03 21:12 | 49.13850 | 2.34588 | 10304 ft | 288 kts | 37° |
| 2026-05-03 21:12 | 49.15149 | 2.36975 | 10755 ft | 305 kts | 65° |
| 2026-05-03 21:13 | 49.15578 | 2.40205 | 11317 ft | 317 kts | 93° |
| 2026-05-03 21:13 | 49.14973 | 2.43462 | 12003 ft | 324 kts | 120° |
| 2026-05-03 21:13 | 49.13494 | 2.46071 | 12751 ft | 329 kts | 139° |
| 2026-05-03 21:13 | 49.11735 | 2.48333 | 13508 ft | 334 kts | 140° |
| 2026-05-03 21:14 | 49.10079 | 2.50849 | 14221 ft | 339 kts | 124° |
| 2026-05-03 21:14 | 49.09169 | 2.54165 | 14918 ft | 342 kts | 99° |
| 2026-05-03 21:14 | 49.09060 | 2.57801 | 15629 ft | 345 kts | 89° |
| 2026-05-03 21:14 | 49.09124 | 2.61478 | 16319 ft | 349 kts | 88° |
| 2026-05-03 21:15 | 49.09171 | 2.65204 | 16993 ft | 352 kts | 89° |
| 2026-05-03 21:15 | 49.09192 | 2.68911 | 17630 ft | 355 kts | 89° |
| 2026-05-03 21:15 | 49.09206 | 2.72747 | 18256 ft | 359 kts | 90° |
| 2026-05-03 21:15 | 49.09211 | 2.76553 | 18854 ft | 362 kts | 90° |
| 2026-05-03 21:16 | 49.09208 | 2.80418 | 19440 ft | 365 kts | 90° |
| 2026-05-03 21:16 | 49.09200 | 2.84299 | 20007 ft | 368 kts | 90° |
| 2026-05-03 21:16 | 49.09187 | 2.88230 | 20562 ft | 371 kts | 90° |
| 2026-05-03 21:16 | 49.09171 | 2.92186 | 21102 ft | 374 kts | 90° |
| 2026-05-03 21:17 | 49.09152 | 2.96137 | 21625 ft | 377 kts | 90° |
| 2026-05-03 21:17 | 49.09139 | 2.98816 | 21970 ft | 379 kts | 90° |
| 2026-05-03 21:17 | 49.09109 | 3.04219 | 22638 ft | 383 kts | 90° |
| 2026-05-03 21:17 | 49.09084 | 3.08306 | 23118 ft | 386 kts | 90° |
| 2026-05-03 21:18 | 49.09058 | 3.12402 | 23579 ft | 389 kts | 90° |
| 2026-05-03 21:18 | 49.09031 | 3.16527 | 24025 ft | 391 kts | 90° |
| 2026-05-03 21:18 | 49.09001 | 3.20708 | 24460 ft | 394 kts | 90° |
| 2026-05-03 21:18 | 49.08971 | 3.24903 | 24879 ft | 396 kts | 90° |
| 2026-05-03 21:19 | 49.08939 | 3.29112 | 25282 ft | 399 kts | 90° |
| 2026-05-03 21:19 | 49.08905 | 3.33304 | 25670 ft | 401 kts | 91° |
| 2026-05-03 21:19 | 49.08870 | 3.37586 | 26052 ft | 404 kts | 91° |
| 2026-05-03 21:19 | 49.08833 | 3.41928 | 26425 ft | 406 kts | 91° |
| 2026-05-03 21:20 | 49.08795 | 3.46256 | 26782 ft | 408 kts | 91° |
| 2026-05-03 21:20 | 49.08755 | 3.50546 | 27123 ft | 411 kts | 91° |
| 2026-05-03 21:20 | 49.08722 | 3.54949 | 27461 ft | 413 kts | 89° |
| 2026-05-03 21:20 | 49.08894 | 3.59280 | 27781 ft | 415 kts | 84° |
| 2026-05-03 21:21 | 49.09183 | 3.63679 | 28100 ft | 417 kts | 84° |
| 2026-05-03 21:21 | 49.09488 | 3.68090 | 28420 ft | 418 kts | 84° |
| 2026-05-03 21:21 | 49.09794 | 3.72503 | 28729 ft | 420 kts | 84° |
| 2026-05-03 21:21 | 49.10103 | 3.76999 | 29025 ft | 422 kts | 84° |
| 2026-05-03 21:22 | 49.10403 | 3.81398 | 29301 ft | 424 kts | 84° |
| 2026-05-03 21:22 | 49.10708 | 3.85892 | 29572 ft | 425 kts | 84° |
| 2026-05-03 21:22 | 49.11012 | 3.90399 | 29833 ft | 427 kts | 84° |
| 2026-05-03 21:22 | 49.11315 | 3.94909 | 30085 ft | 429 kts | 84° |
| 2026-05-03 21:23 | 49.11616 | 3.99431 | 30330 ft | 431 kts | 84° |
| 2026-05-03 21:23 | 49.11920 | 4.04011 | 30573 ft | 432 kts | 84° |
| 2026-05-03 21:23 | 49.12222 | 4.08577 | 30811 ft | 434 kts | 84° |
| 2026-05-03 21:23 | 49.12524 | 4.13170 | 31045 ft | 435 kts | 84° |
| 2026-05-03 21:24 | 49.12829 | 4.17833 | 31279 ft | 437 kts | 84° |
| 2026-05-03 21:24 | 49.13126 | 4.22386 | 31503 ft | 439 kts | 84° |
| 2026-05-03 21:24 | 49.13427 | 4.27043 | 31728 ft | 440 kts | 84° |
| 2026-05-03 21:24 | 49.13781 | 4.31687 | 31961 ft | 441 kts | 81° |
| 2026-05-03 21:25 | 49.14383 | 4.36295 | 32210 ft | 442 kts | 76° |
| 2026-05-03 21:25 | 49.15272 | 4.40769 | 32467 ft | 442 kts | 70° |
| 2026-05-03 21:25 | 49.16400 | 4.45139 | 32733 ft | 442 kts | 68° |
| 2026-05-03 21:25 | 49.17570 | 4.49485 | 32996 ft | 441 kts | 68° |
| 2026-05-03 21:26 | 49.18746 | 4.53836 | 33258 ft | 441 kts | 68° |
| 2026-05-03 21:26 | 49.19909 | 4.58141 | 33514 ft | 441 kts | 68° |
| 2026-05-03 21:26 | 49.21082 | 4.62481 | 33767 ft | 440 kts | 68° |
| 2026-05-03 21:26 | 49.22252 | 4.66813 | 34013 ft | 440 kts | 68° |
| 2026-05-03 21:27 | 49.23415 | 4.71123 | 34254 ft | 439 kts | 68° |
| 2026-05-03 21:27 | 49.24200 | 4.74037 | 34413 ft | 439 kts | 68° |
| 2026-05-03 21:27 | 49.25365 | 4.78362 | 34644 ft | 438 kts | 68° |
| 2026-05-03 21:27 | 49.26523 | 4.82665 | 34867 ft | 438 kts | 68° |
| 2026-05-03 21:28 | 49.27668 | 4.86927 | 35081 ft | 437 kts | 68° |
| 2026-05-03 21:28 | 49.28834 | 4.91275 | 35295 ft | 436 kts | 68° |
| 2026-05-03 21:28 | 49.29983 | 4.95563 | 35500 ft | 436 kts | 68° |
| 2026-05-03 21:28 | 49.31121 | 4.99819 | 35697 ft | 435 kts | 68° |
| 2026-05-03 21:29 | 49.32285 | 5.04175 | 35892 ft | 435 kts | 68° |
| 2026-05-03 21:29 | 49.33423 | 5.08447 | 36079 ft | 434 kts | 68° |
| 2026-05-03 21:29 | 49.34554 | 5.12694 | 36256 ft | 434 kts | 68° |
| 2026-05-03 21:29 | 49.35688 | 5.16963 | 36426 ft | 434 kts | 68° |
| 2026-05-03 21:30 | 49.36826 | 5.21254 | 36589 ft | 433 kts | 68° |
| 2026-05-03 21:30 | 49.37967 | 5.25565 | 36864 ft | 430 kts | 68° |
| 2026-05-03 21:30 | 49.39089 | 5.29815 | 36981 ft | 431 kts | 68° |
| 2026-05-03 21:30 | 49.40204 | 5.34046 | 37000 ft | 432 kts | 68° |
| 2026-05-03 21:31 | 49.42454 | 5.42599 | 36998 ft | 431 kts | 68° |
| 2026-05-03 21:31 | 49.44690 | 5.51131 | 36999 ft | 431 kts | 68° |
| 2026-05-03 21:32 | 49.46922 | 5.59679 | 36999 ft | 431 kts | 68° |
| 2026-05-03 21:32 | 49.49148 | 5.68231 | 36999 ft | 431 kts | 68° |
| 2026-05-03 21:33 | 49.51369 | 5.76800 | 36998 ft | 431 kts | 68° |
| 2026-05-03 21:33 | 49.53443 | 5.85476 | 36999 ft | 431 kts | 70° |
| 2026-05-03 21:34 | 49.55512 | 5.94125 | 36999 ft | 431 kts | 70° |
| 2026-05-03 21:34 | 49.57612 | 6.02780 | 36999 ft | 431 kts | 69° |
| 2026-05-03 21:35 | 49.59717 | 6.11411 | 36999 ft | 431 kts | 69° |
| 2026-05-03 21:35 | 49.61828 | 6.20049 | 36999 ft | 431 kts | 69° |
| 2026-05-03 21:36 | 49.63970 | 6.28684 | 36997 ft | 431 kts | 66° |
| 2026-05-03 21:36 | 49.66730 | 6.36871 | 36999 ft | 431 kts | 61° |
| 2026-05-03 21:37 | 49.69610 | 6.45002 | 36998 ft | 431 kts | 61° |
| 2026-05-03 21:37 | 49.72465 | 6.53123 | 36999 ft | 431 kts | 62° |
| 2026-05-03 21:38 | 49.75313 | 6.61270 | 36999 ft | 431 kts | 62° |
| 2026-05-03 21:38 | 49.78156 | 6.69446 | 36999 ft | 431 kts | 62° |
| 2026-05-03 21:39 | 49.80980 | 6.77607 | 36999 ft | 431 kts | 62° |
| 2026-05-03 21:39 | 49.83796 | 6.85774 | 36999 ft | 430 kts | 62° |
| 2026-05-03 21:40 | 49.86614 | 6.93976 | 36999 ft | 430 kts | 62° |
| 2026-05-03 21:40 | 49.89417 | 7.02160 | 36999 ft | 430 kts | 62° |
| 2026-05-03 21:41 | 49.92224 | 7.10385 | 36999 ft | 430 kts | 62° |
| 2026-05-03 21:41 | 49.95019 | 7.18600 | 36999 ft | 430 kts | 62° |
| 2026-05-03 21:42 | 49.97806 | 7.26818 | 36999 ft | 430 kts | 62° |
| 2026-05-03 21:42 | 50.00591 | 7.35059 | 36999 ft | 430 kts | 62° |
| 2026-05-03 21:43 | 50.03364 | 7.43293 | 36999 ft | 430 kts | 62° |
| 2026-05-03 21:43 | 50.06120 | 7.51501 | 36999 ft | 430 kts | 62° |
| 2026-05-03 21:44 | 50.08897 | 7.59800 | 36999 ft | 430 kts | 62° |
| 2026-05-03 21:44 | 50.11640 | 7.68027 | 36999 ft | 430 kts | 63° |
| 2026-05-03 21:45 | 50.14390 | 7.76300 | 36999 ft | 430 kts | 63° |
| 2026-05-03 21:45 | 50.17134 | 7.84584 | 36999 ft | 430 kts | 63° |
| 2026-05-03 21:46 | 50.19877 | 7.92891 | 36999 ft | 430 kts | 63° |
| 2026-05-03 21:46 | 50.22608 | 8.01187 | 36999 ft | 430 kts | 63° |
| 2026-05-03 21:47 | 50.25333 | 8.09495 | 36999 ft | 430 kts | 63° |
| 2026-05-03 21:47 | 50.28055 | 8.17823 | 36999 ft | 430 kts | 63° |
| 2026-05-03 21:48 | 50.30770 | 8.26156 | 36999 ft | 430 kts | 63° |
| 2026-05-03 21:48 | 50.33475 | 8.34487 | 36999 ft | 430 kts | 63° |
| 2026-05-03 21:49 | 50.36176 | 8.42835 | 36999 ft | 430 kts | 63° |
| 2026-05-03 21:49 | 50.38872 | 8.51192 | 36999 ft | 430 kts | 63° |
| 2026-05-03 21:50 | 50.41560 | 8.59555 | 36999 ft | 430 kts | 63° |
| 2026-05-03 21:50 | 50.44248 | 8.67946 | 36999 ft | 430 kts | 63° |
| 2026-05-03 21:51 | 50.46919 | 8.76314 | 36999 ft | 430 kts | 63° |
| 2026-05-03 21:51 | 50.49595 | 8.84722 | 36999 ft | 430 kts | 63° |
| 2026-05-03 21:52 | 50.52254 | 8.93109 | 36999 ft | 429 kts | 63° |
| 2026-05-03 21:52 | 50.54910 | 9.01513 | 36999 ft | 429 kts | 64° |
| 2026-05-03 21:53 | 50.57562 | 9.09935 | 36999 ft | 429 kts | 64° |
| 2026-05-03 21:53 | 50.60205 | 9.18354 | 36999 ft | 429 kts | 64° |
| 2026-05-03 21:54 | 50.62845 | 9.26795 | 36999 ft | 429 kts | 64° |
| 2026-05-03 21:54 | 50.65475 | 9.35234 | 36999 ft | 429 kts | 64° |
| 2026-05-03 21:55 | 50.68090 | 9.43652 | 36999 ft | 429 kts | 64° |
| 2026-05-03 21:55 | 50.70720 | 9.52148 | 36999 ft | 429 kts | 64° |
| 2026-05-03 21:56 | 50.73280 | 9.60602 | 36996 ft | 429 kts | 69° |
| 2026-05-03 21:56 | 50.75143 | 9.69552 | 36999 ft | 429 kts | 73° |
| 2026-05-03 21:57 | 50.76920 | 9.78603 | 36999 ft | 429 kts | 72° |
| 2026-05-03 21:57 | 50.78707 | 9.87593 | 36999 ft | 429 kts | 72° |
| 2026-05-03 21:58 | 50.80499 | 9.96545 | 36999 ft | 429 kts | 72° |
| 2026-05-03 21:58 | 50.82299 | 10.05513 | 36999 ft | 429 kts | 72° |
| 2026-05-03 21:59 | 50.84110 | 10.14535 | 36999 ft | 429 kts | 72° |
| 2026-05-03 21:59 | 50.85908 | 10.23505 | 36999 ft | 429 kts | 72° |
| 2026-05-03 22:00 | 50.87710 | 10.32522 | 36999 ft | 429 kts | 72° |
| 2026-05-03 22:00 | 50.89507 | 10.41540 | 36999 ft | 429 kts | 72° |
| 2026-05-03 22:01 | 50.91313 | 10.50533 | 36999 ft | 429 kts | 72° |
| 2026-05-03 22:01 | 50.93199 | 10.59495 | 36999 ft | 429 kts | 71° |
| 2026-05-03 22:02 | 50.95103 | 10.68451 | 36999 ft | 429 kts | 71° |
| 2026-05-03 22:02 | 50.97005 | 10.77411 | 36999 ft | 429 kts | 71° |
| 2026-05-03 22:03 | 50.98902 | 10.86386 | 36999 ft | 429 kts | 71° |
| 2026-05-03 22:03 | 51.00789 | 10.95353 | 36999 ft | 429 kts | 71° |
| 2026-05-03 22:04 | 51.02673 | 11.04349 | 36999 ft | 429 kts | 71° |
| 2026-05-03 22:04 | 51.04542 | 11.13314 | 36999 ft | 429 kts | 72° |
| 2026-05-03 22:05 | 51.06411 | 11.22321 | 36999 ft | 428 kts | 72° |
| 2026-05-03 22:05 | 51.08266 | 11.31309 | 36999 ft | 428 kts | 72° |
| 2026-05-03 22:06 | 51.10120 | 11.40330 | 36999 ft | 428 kts | 72° |
| 2026-05-03 22:06 | 51.11961 | 11.49327 | 36999 ft | 428 kts | 72° |
| 2026-05-03 22:07 | 51.13804 | 11.58381 | 36999 ft | 428 kts | 72° |
| 2026-05-03 22:07 | 51.15634 | 11.67410 | 36999 ft | 428 kts | 72° |
| 2026-05-03 22:08 | 51.17448 | 11.76404 | 36999 ft | 428 kts | 72° |
| 2026-05-03 22:08 | 51.19271 | 11.85483 | 36999 ft | 428 kts | 72° |
| 2026-05-03 22:09 | 51.21075 | 11.94509 | 36999 ft | 428 kts | 72° |
| 2026-05-03 22:10 | 51.23775 | 12.08099 | 36999 ft | 428 kts | 72° |
| 2026-05-03 22:10 | 51.25562 | 12.17147 | 36999 ft | 428 kts | 72° |
| 2026-05-03 22:11 | 51.27048 | 12.24709 | 36999 ft | 428 kts | 72° |
| 2026-05-03 22:11 | 51.28823 | 12.33773 | 36999 ft | 428 kts | 72° |
| 2026-05-03 22:12 | 51.30593 | 12.42858 | 36999 ft | 428 kts | 72° |
| 2026-05-03 22:12 | 51.32351 | 12.51923 | 36999 ft | 428 kts | 73° |
| 2026-05-03 22:13 | 51.34108 | 12.61026 | 36999 ft | 428 kts | 73° |
| 2026-05-03 22:13 | 51.35851 | 12.70103 | 36999 ft | 428 kts | 73° |
| 2026-05-03 22:14 | 51.37594 | 12.79224 | 36999 ft | 428 kts | 73° |
| 2026-05-03 22:14 | 51.39330 | 12.88351 | 36999 ft | 428 kts | 73° |
| 2026-05-03 22:15 | 51.41055 | 12.97466 | 36999 ft | 428 kts | 73° |
| 2026-05-03 22:15 | 51.42773 | 13.06585 | 36999 ft | 428 kts | 73° |
| 2026-05-03 22:16 | 51.44482 | 13.15703 | 36999 ft | 428 kts | 73° |
| 2026-05-03 22:16 | 51.46177 | 13.24795 | 36999 ft | 428 kts | 73° |
| 2026-05-03 22:17 | 51.47885 | 13.33995 | 36999 ft | 428 kts | 73° |
| 2026-05-03 22:17 | 51.49576 | 13.43153 | 36999 ft | 428 kts | 73° |
| 2026-05-03 22:18 | 51.51255 | 13.52290 | 36999 ft | 427 kts | 73° |
| 2026-05-03 22:18 | 51.52929 | 13.61449 | 36999 ft | 427 kts | 73° |
| 2026-05-03 22:19 | 51.54598 | 13.70621 | 36999 ft | 427 kts | 73° |
| 2026-05-03 22:19 | 51.56248 | 13.79737 | 36999 ft | 427 kts | 74° |
| 2026-05-03 22:20 | 51.57902 | 13.88924 | 36999 ft | 427 kts | 74° |
| 2026-05-03 22:20 | 51.59546 | 13.98098 | 36999 ft | 427 kts | 74° |
| 2026-05-03 22:21 | 51.61186 | 14.07298 | 36999 ft | 427 kts | 74° |
| 2026-05-03 22:21 | 51.62812 | 14.16468 | 36999 ft | 427 kts | 74° |
| 2026-05-03 22:22 | 51.64441 | 14.25701 | 36999 ft | 427 kts | 74° |
| 2026-05-03 22:22 | 51.66054 | 14.34888 | 36999 ft | 427 kts | 74° |
| 2026-05-03 22:23 | 51.67663 | 14.44100 | 36999 ft | 427 kts | 74° |
| 2026-05-03 22:23 | 51.69260 | 14.53295 | 36999 ft | 427 kts | 74° |
| 2026-05-03 22:24 | 51.70833 | 14.62491 | 36938 ft | 420 kts | 73° |
| 2026-05-03 22:24 | 51.72365 | 14.71598 | 36922 ft | 423 kts | 72° |
| 2026-05-03 22:25 | 51.73914 | 14.80830 | 36925 ft | 431 kts | 72° |
| 2026-05-03 22:25 | 51.75520 | 14.90187 | 36928 ft | 438 kts | 72° |
| 2026-05-03 22:26 | 51.77180 | 14.99767 | 36927 ft | 445 kts | 74° |
| 2026-05-03 22:26 | 51.78860 | 15.09484 | 36929 ft | 452 kts | 75° |
| 2026-05-03 22:27 | 51.80534 | 15.19340 | 36928 ft | 456 kts | 76° |
| 2026-05-03 22:27 | 51.82196 | 15.29207 | 36927 ft | 453 kts | 76° |
| 2026-05-03 22:28 | 51.83843 | 15.39023 | 36929 ft | 454 kts | 76° |
| 2026-05-03 22:28 | 51.85495 | 15.48887 | 36929 ft | 456 kts | 76° |
| 2026-05-03 22:29 | 51.87143 | 15.58757 | 36930 ft | 454 kts | 76° |
| 2026-05-03 22:29 | 51.88754 | 15.68453 | 36929 ft | 443 kts | 76° |
| 2026-05-03 22:30 | 51.90345 | 15.78149 | 36934 ft | 449 kts | 76° |
| 2026-05-03 22:30 | 51.91951 | 15.88003 | 36933 ft | 453 kts | 76° |
| 2026-05-03 22:31 | 51.93569 | 15.97847 | 36933 ft | 452 kts | 76° |
| 2026-05-03 22:31 | 51.95179 | 16.07605 | 36935 ft | 447 kts | 76° |
| 2026-05-03 22:32 | 51.96793 | 16.17379 | 36936 ft | 450 kts | 76° |
| 2026-05-03 22:32 | 51.98417 | 16.27202 | 36941 ft | 452 kts | 76° |
| 2026-05-03 22:33 | 52.00038 | 16.37038 | 36938 ft | 448 kts | 76° |
| 2026-05-03 22:33 | 52.01642 | 16.46802 | 36943 ft | 449 kts | 76° |
| 2026-05-03 22:34 | 52.03250 | 16.56605 | 36942 ft | 450 kts | 76° |
| 2026-05-03 22:34 | 52.04863 | 16.66471 | 36940 ft | 450 kts | 76° |
| 2026-05-03 22:35 | 52.06431 | 16.76138 | 36939 ft | 441 kts | 76° |
| 2026-05-03 22:35 | 52.07985 | 16.85829 | 36937 ft | 444 kts | 76° |
| 2026-05-03 22:36 | 52.09544 | 16.95542 | 36938 ft | 443 kts | 76° |
| 2026-05-03 22:36 | 52.11099 | 17.05272 | 36938 ft | 445 kts | 76° |
| 2026-05-03 22:37 | 52.12651 | 17.15020 | 36938 ft | 447 kts | 76° |
| 2026-05-03 22:37 | 52.14217 | 17.24878 | 36942 ft | 451 kts | 76° |
| 2026-05-03 22:38 | 52.15780 | 17.34761 | 36939 ft | 449 kts | 76° |
| 2026-05-03 22:38 | 52.17323 | 17.44599 | 36944 ft | 449 kts | 76° |
| 2026-05-03 22:39 | 52.18864 | 17.54470 | 36942 ft | 449 kts | 76° |
| 2026-05-03 22:39 | 52.20394 | 17.64324 | 36944 ft | 448 kts | 76° |
| 2026-05-03 22:40 | 52.21909 | 17.74165 | 36941 ft | 440 kts | 76° |
| 2026-05-03 22:40 | 52.23345 | 17.83771 | 36949 ft | 438 kts | 76° |
| 2026-05-03 22:41 | 52.24783 | 17.93452 | 36957 ft | 440 kts | 76° |
| 2026-05-03 22:41 | 52.26065 | 18.03142 | 36951 ft | 441 kts | 82° |
| 2026-05-03 22:42 | 52.26775 | 18.13208 | 36810 ft | 447 kts | 84° |
| 2026-05-03 22:42 | 52.27130 | 18.18234 | 36562 ft | 446 kts | 83° |
| 2026-05-03 22:42 | 52.27493 | 18.23258 | 36197 ft | 445 kts | 83° |
| 2026-05-03 22:42 | 52.27858 | 18.28252 | 35637 ft | 442 kts | 83° |
| 2026-05-03 22:43 | 52.28221 | 18.33211 | 35015 ft | 438 kts | 83° |
| 2026-05-03 22:43 | 52.28585 | 18.38142 | 34426 ft | 434 kts | 83° |
| 2026-05-03 22:43 | 52.28947 | 18.43000 | 33839 ft | 430 kts | 83° |
| 2026-05-03 22:43 | 52.29308 | 18.47827 | 33229 ft | 426 kts | 83° |
| 2026-05-03 22:44 | 52.29666 | 18.52593 | 32657 ft | 421 kts | 83° |
| 2026-05-03 22:44 | 52.30022 | 18.57331 | 32087 ft | 417 kts | 83° |
| 2026-05-03 22:44 | 52.30377 | 18.62032 | 31545 ft | 416 kts | 83° |
| 2026-05-03 22:44 | 52.30732 | 18.66704 | 31037 ft | 415 kts | 82° |
| 2026-05-03 22:45 | 52.31088 | 18.71370 | 30542 ft | 413 kts | 82° |
| 2026-05-03 22:45 | 52.31444 | 18.76036 | 30035 ft | 411 kts | 82° |
| 2026-05-03 22:45 | 52.31798 | 18.80665 | 29461 ft | 409 kts | 83° |
| 2026-05-03 22:45 | 52.32147 | 18.85236 | 28912 ft | 404 kts | 83° |
| 2026-05-03 22:46 | 52.32490 | 18.89757 | 28311 ft | 400 kts | 83° |
| 2026-05-03 22:46 | 52.32829 | 18.94248 | 27704 ft | 396 kts | 83° |
| 2026-05-03 22:46 | 52.33163 | 18.98701 | 27104 ft | 392 kts | 83° |
| 2026-05-03 22:46 | 52.33492 | 19.03105 | 26533 ft | 388 kts | 83° |
| 2026-05-03 22:47 | 52.33816 | 19.07470 | 25967 ft | 386 kts | 83° |
| 2026-05-03 22:47 | 52.34136 | 19.11800 | 25420 ft | 382 kts | 83° |
| 2026-05-03 22:47 | 52.34454 | 19.16116 | 24864 ft | 380 kts | 83° |
| 2026-05-03 22:47 | 52.34736 | 19.19970 | 24374 ft | 377 kts | 83° |
| 2026-05-03 22:48 | 52.35004 | 19.23987 | 23913 ft | 379 kts | 85° |
| 2026-05-03 22:48 | 52.35208 | 19.28289 | 23473 ft | 377 kts | 86° |
| 2026-05-03 22:48 | 52.35390 | 19.32521 | 22926 ft | 373 kts | 86° |
| 2026-05-03 22:48 | 52.35576 | 19.36750 | 22323 ft | 370 kts | 86° |
| 2026-05-03 22:49 | 52.35764 | 19.40898 | 21757 ft | 366 kts | 86° |
| 2026-05-03 22:49 | 52.35956 | 19.45043 | 21208 ft | 364 kts | 86° |
| 2026-05-03 22:49 | 52.36149 | 19.49151 | 20692 ft | 361 kts | 86° |
| 2026-05-03 22:49 | 52.36343 | 19.53260 | 20155 ft | 360 kts | 86° |
| 2026-05-03 22:50 | 52.36536 | 19.57326 | 19645 ft | 358 kts | 86° |
| 2026-05-03 22:50 | 52.36729 | 19.61388 | 19116 ft | 357 kts | 86° |
| 2026-05-03 22:50 | 52.36920 | 19.65426 | 18600 ft | 355 kts | 86° |
| 2026-05-03 22:50 | 52.37109 | 19.69432 | 18077 ft | 353 kts | 86° |
| 2026-05-03 22:51 | 52.37315 | 19.73417 | 17568 ft | 350 kts | 84° |
| 2026-05-03 22:51 | 52.37710 | 19.77341 | 17072 ft | 349 kts | 78° |
| 2026-05-03 22:51 | 52.38390 | 19.81164 | 16632 ft | 354 kts | 70° |
| 2026-05-03 22:51 | 52.39276 | 19.84942 | 16228 ft | 358 kts | 68° |
| 2026-05-03 22:52 | 52.40207 | 19.88741 | 15792 ft | 359 kts | 68° |
| 2026-05-03 22:52 | 52.41144 | 19.92541 | 15358 ft | 358 kts | 68° |
| 2026-05-03 22:52 | 52.42072 | 19.96315 | 14947 ft | 357 kts | 68° |
| 2026-05-03 22:52 | 52.42999 | 20.00091 | 14528 ft | 356 kts | 68° |
| 2026-05-03 22:53 | 52.43918 | 20.03842 | 14107 ft | 355 kts | 68° |
| 2026-05-03 22:53 | 52.44828 | 20.07569 | 13702 ft | 352 kts | 68° |
| 2026-05-03 22:53 | 52.45432 | 20.10044 | 13430 ft | 350 kts | 68° |
| 2026-05-03 22:53 | 52.46337 | 20.13761 | 13022 ft | 350 kts | 68° |
| 2026-05-03 22:54 | 52.47230 | 20.17435 | 12614 ft | 349 kts | 69° |
| 2026-05-03 22:54 | 52.48125 | 20.21123 | 12215 ft | 345 kts | 69° |
| 2026-05-03 22:54 | 52.49004 | 20.24752 | 11982 ft | 336 kts | 69° |
| 2026-05-03 22:54 | 52.49849 | 20.28252 | 11797 ft | 328 kts | 69° |
| 2026-05-03 22:55 | 52.50603 | 20.31814 | 11385 ft | 324 kts | 77° |
| 2026-05-03 22:55 | 52.50896 | 20.35407 | 10993 ft | 315 kts | 91° |
| 2026-05-03 22:55 | 52.50674 | 20.38931 | 10726 ft | 312 kts | 102° |
| 2026-05-03 22:55 | 52.50278 | 20.42407 | 10421 ft | 304 kts | 104° |
| 2026-05-03 22:56 | 52.49882 | 20.45741 | 10269 ft | 292 kts | 104° |
| 2026-05-03 22:56 | 52.49473 | 20.48992 | 9957 ft | 283 kts | 106° |
| 2026-05-03 22:56 | 52.48953 | 20.52041 | 9529 ft | 274 kts | 112° |
| 2026-05-03 22:56 | 52.48280 | 20.54865 | 9219 ft | 264 kts | 117° |
| 2026-05-03 22:57 | 52.47549 | 20.57595 | 8983 ft | 261 kts | 117° |
| 2026-05-03 22:57 | 52.46810 | 20.60315 | 8702 ft | 258 kts | 118° |
| 2026-05-03 22:57 | 52.46085 | 20.62988 | 8408 ft | 257 kts | 118° |
| 2026-05-03 22:57 | 52.45362 | 20.65633 | 8148 ft | 251 kts | 118° |
| 2026-05-03 22:58 | 52.44640 | 20.68244 | 7944 ft | 245 kts | 118° |
| 2026-05-03 22:58 | 52.43951 | 20.70725 | 7805 ft | 243 kts | 118° |
| 2026-05-03 22:58 | 52.43248 | 20.73252 | 7653 ft | 243 kts | 118° |
| 2026-05-03 22:58 | 52.42551 | 20.75754 | 7490 ft | 239 kts | 118° |
| 2026-05-03 22:59 | 52.41853 | 20.78240 | 7238 ft | 240 kts | 118° |
| 2026-05-03 22:59 | 52.41174 | 20.80677 | 6989 ft | 236 kts | 118° |
| 2026-05-03 22:59 | 52.40488 | 20.83124 | 6833 ft | 233 kts | 119° |
| 2026-05-03 22:59 | 52.39600 | 20.85328 | 6688 ft | 230 kts | 140° |
| 2026-05-03 23:00 | 52.38266 | 20.86556 | 6553 ft | 218 kts | 170° |
| 2026-05-03 23:00 | 52.36797 | 20.86416 | 6347 ft | 211 kts | 200° |
| 2026-05-03 23:00 | 52.35437 | 20.85565 | 6138 ft | 209 kts | 204° |
| 2026-05-03 23:00 | 52.34106 | 20.84660 | 6007 ft | 209 kts | 205° |
| 2026-05-03 23:01 | 52.32774 | 20.83723 | 5878 ft | 205 kts | 206° |
| 2026-05-03 23:01 | 52.31575 | 20.82561 | 5740 ft | 199 kts | 223° |
| 2026-05-03 23:01 | 52.30883 | 20.80660 | 5624 ft | 200 kts | 257° |
| 2026-05-03 23:01 | 52.31066 | 20.78422 | 5512 ft | 202 kts | 285° |
| 2026-05-03 23:02 | 52.31581 | 20.76273 | 5365 ft | 202 kts | 288° |
| 2026-05-03 23:02 | 52.32124 | 20.74147 | 5220 ft | 202 kts | 289° |
| 2026-05-03 23:02 | 52.32681 | 20.72034 | 5091 ft | 205 kts | 290° |
| 2026-05-03 23:02 | 52.33243 | 20.69923 | 4945 ft | 203 kts | 290° |
| 2026-05-03 23:03 | 52.33811 | 20.67814 | 4789 ft | 200 kts | 290° |
| 2026-05-03 23:03 | 52.34379 | 20.65726 | 4696 ft | 201 kts | 290° |
| 2026-05-03 23:03 | 52.34909 | 20.63630 | 4603 ft | 199 kts | 283° |
| 2026-05-03 23:03 | 52.34985 | 20.61449 | 4499 ft | 188 kts | 256° |
| 2026-05-03 23:04 | 52.34325 | 20.59695 | 4408 ft | 186 kts | 218° |
| 2026-05-03 23:04 | 52.33203 | 20.58634 | 4291 ft | 186 kts | 210° |
| 2026-05-03 23:04 | 52.32025 | 20.57816 | 4145 ft | 185 kts | 196° |
| 2026-05-03 23:04 | 52.30729 | 20.57741 | 4064 ft | 189 kts | 177° |
| 2026-05-03 23:05 | 52.29462 | 20.58371 | 3984 ft | 193 kts | 160° |
| 2026-05-03 23:05 | 52.28313 | 20.59566 | 3921 ft | 197 kts | 146° |
| 2026-05-03 23:05 | 52.27329 | 20.61117 | 3693 ft | 198 kts | 136° |
| 2026-05-03 23:05 | 52.26481 | 20.62909 | 3548 ft | 200 kts | 130° |
| 2026-05-03 23:06 | 52.25734 | 20.64830 | 3471 ft | 202 kts | 125° |
| 2026-05-03 23:06 | 52.25055 | 20.66838 | 3372 ft | 202 kts | 122° |
| 2026-05-03 23:06 | 52.24418 | 20.68902 | 3286 ft | 204 kts | 121° |
| 2026-05-03 23:06 | 52.23840 | 20.70885 | 3213 ft | 182 kts | 121° |
| 2026-05-03 23:07 | 52.23324 | 20.72687 | 3088 ft | 170 kts | 122° |
| 2026-05-03 23:07 | 52.22846 | 20.74360 | 2988 ft | 159 kts | 121° |
| 2026-05-03 23:07 | 52.22380 | 20.76009 | 2815 ft | 155 kts | 121° |
| 2026-05-03 23:07 | 52.21936 | 20.77592 | 2620 ft | 153 kts | 122° |
| 2026-05-03 23:08 | 52.21486 | 20.79174 | 2427 ft | 153 kts | 121° |
| 2026-05-03 23:08 | 52.21039 | 20.80778 | 2237 ft | 156 kts | 120° |
| 2026-05-03 23:08 | 52.20594 | 20.82378 | 2033 ft | 155 kts | 121° |
| 2026-05-03 23:08 | 52.20146 | 20.83973 | 1831 ft | 155 kts | 120° |
| 2026-05-03 23:09 | 52.19708 | 20.85549 | 1624 ft | 149 kts | 121° |
| 2026-05-03 23:09 | 52.19273 | 20.87082 | 1421 ft | 147 kts | 121° |
| 2026-05-03 23:09 | 52.18851 | 20.88594 | 1217 ft | 145 kts | 120° |
| 2026-05-03 23:09 | 52.18437 | 20.90067 | 1017 ft | 141 kts | 120° |
| 2026-05-03 23:10 | 52.18037 | 20.91493 | 816 ft | 138 kts | 119° |
| 2026-05-03 23:10 | 52.17646 | 20.92925 | 634 ft | 136 kts | 119° |
| 2026-05-03 23:10 | 52.17241 | 20.94334 | 450 ft | 135 kts | 119° |
| 2026-05-03 23:10 | 52.16849 | 20.95666 | 376 ft | 116 kts | 109° |
| 2026-05-03 23:11 | 52.16604 | 20.96597 | 376 ft | 62 kts | 118° |
| 2026-05-03 23:11 | 52.16487 | 20.97014 | 376 ft | 19 kts | 111° |
| 2026-05-03 23:11 | 52.16513 | 20.97075 | 376 ft | 7 kts | 316° |
| 2026-05-03 23:11 | 52.16561 | 20.97017 | 376 ft | 10 kts | 330° |
| 2026-05-03 23:12 | 52.16604 | 20.96980 | 376 ft | 0 kts | 333° |
| 2026-05-03 23:13 | 52.16615 | 20.96970 | 376 ft | 4 kts | 333° |
| 2026-05-03 23:13 | 52.16653 | 20.96939 | 376 ft | 8 kts | 333° |
| 2026-05-03 23:13 | 52.16718 | 20.96885 | 376 ft | 13 kts | 333° |
| 2026-05-03 23:14 | 52.16794 | 20.96823 | 376 ft | 8 kts | 351° |
| 2026-05-03 23:14 | 52.16822 | 20.96856 | 376 ft | 6 kts | 80° |
| 2026-05-03 23:14 | 52.16840 | 20.96924 | 376 ft | 7 kts | 64° |
| 2026-05-03 23:14 | 52.16845 | 20.96941 | 376 ft | 1 kts | 64° |
| 2026-05-03 23:15 | 52.16849 | 20.96954 | 376 ft | 0 kts | 65° |